Weather at Terre Haute Regional Airport, Hulman Field

Public forecast

Using degrees Fahrenheit for public forecast. Weather courtesy of forecast.io.

Current aviation weather report (METAR) for Terre Haute Regional Airport, Hulman Field

Retrieved 2022/08/18 03:53 UTC (40 minutes ago):

KHUF 180353Z 00000KT 10SM CLR 17/16 A3005 RMK AO2 SLP173 T01670156

Aviation forecast (TAF) for Terre Haute Regional Airport, Hulman Field

Retrieved 2022-08-18 00:27 UTC (4 hours ago):

TAF KHUF 172325Z 1800/1824 02005KT P6SM SCT250 TEMPO 1810/1813 4SM BR FM181400 13004KT P6SM SCT060 SCT250